createdAt,value
2022-07-28T00:03:32.710Z,17.45
2022-07-28T00:06:40.986Z,17.39
2022-07-28T00:09:47.328Z,17.41
2022-07-28T00:12:53.153Z,17.41
2022-07-28T00:15:59.607Z,17.43
2022-07-28T00:19:06.900Z,17.43
2022-07-28T00:22:16.002Z,17.42
2022-07-28T00:25:21.400Z,17.40
2022-07-28T00:28:27.696Z,17.43
2022-07-28T00:31:33.442Z,17.41
2022-07-28T00:34:40.764Z,17.41
2022-07-28T00:37:50.718Z,17.39
2022-07-28T00:41:16.920Z,17.31
2022-07-28T00:44:22.522Z,17.29
2022-07-28T00:47:33.616Z,17.19
2022-07-28T00:50:42.819Z,17.19
2022-07-28T00:53:52.129Z,17.12
2022-07-28T00:56:57.503Z,17.06
2022-07-28T01:00:04.164Z,17.04
2022-07-28T01:03:10.213Z,17.04
2022-07-28T01:06:29.429Z,16.95
2022-07-28T01:09:53.888Z,16.85
2022-07-28T01:13:07.347Z,16.78
2022-07-28T01:16:13.597Z,16.74
2022-07-28T01:19:36.838Z,16.68
2022-07-28T01:22:48.877Z,16.68
2022-07-28T01:26:14.694Z,16.66
2022-07-28T01:29:32.017Z,16.61
2022-07-28T01:32:46.277Z,16.65
2022-07-28T01:35:57.985Z,16.63
2022-07-28T01:39:06.396Z,16.62
2022-07-28T01:42:16.348Z,16.58
2022-07-28T01:45:23.989Z,16.60
2022-07-28T01:48:34.491Z,16.63
2022-07-28T01:51:41.506Z,16.62
2022-07-28T01:54:49.818Z,16.68
2022-07-28T01:57:58.726Z,16.60
2022-07-28T02:01:07.036Z,16.54
2022-07-28T02:04:18.711Z,16.56
2022-07-28T02:07:25.863Z,16.50
2022-07-28T02:10:33.149Z,16.48
2022-07-28T02:13:39.418Z,16.42
2022-07-28T02:16:50.251Z,16.39
2022-07-28T02:20:00.407Z,16.39
2022-07-28T02:23:08.717Z,16.48
2022-07-28T02:26:18.071Z,16.41
2022-07-28T02:29:49.639Z,16.43
2022-07-28T02:32:56.827Z,16.42
2022-07-28T02:36:14.164Z,16.35
2022-07-28T02:39:27.137Z,16.27
2022-07-28T02:42:36.539Z,16.26
2022-07-28T02:45:44.989Z,16.17
2022-07-28T02:48:55.514Z,16.09
2022-07-28T02:52:07.902Z,16.01
2022-07-28T02:55:17.849Z,15.91
2022-07-28T02:58:26.959Z,15.81
2022-07-28T03:01:35.089Z,15.74
2022-07-28T03:05:03.178Z,15.68
2022-07-28T03:08:19.238Z,15.65
2022-07-28T03:11:24.963Z,15.66
2022-07-28T03:14:31.212Z,15.72
2022-07-28T03:17:36.646Z,15.78
2022-07-28T03:20:43.395Z,15.80
2022-07-28T03:23:54.736Z,15.82
2022-07-28T03:27:06.119Z,15.88
2022-07-28T03:30:15.543Z,15.87
2022-07-28T03:33:22.081Z,15.87
2022-07-28T03:36:35.951Z,15.93
2022-07-28T03:39:50.035Z,15.97
2022-07-28T03:42:56.606Z,15.98
2022-07-28T03:46:03.060Z,16.01
2022-07-28T03:49:11.604Z,16.11
2022-07-28T03:52:18.066Z,16.14
2022-07-28T03:55:26.802Z,16.17
2022-07-28T03:58:33.101Z,16.18
2022-07-28T04:01:38.724Z,16.19
2022-07-28T04:04:45.233Z,16.16
2022-07-28T04:07:52.271Z,16.13
2022-07-28T04:11:01.320Z,16.15
2022-07-28T04:14:07.345Z,16.13
2022-07-28T04:17:13.665Z,16.17
2022-07-28T04:20:20.557Z,16.14
2022-07-28T04:23:27.046Z,16.11
2022-07-28T04:26:35.521Z,16.11
2022-07-28T04:29:41.907Z,16.12
2022-07-28T04:32:48.237Z,16.12
2022-07-28T04:35:54.854Z,16.17
2022-07-28T04:39:00.667Z,16.23
2022-07-28T04:42:11.782Z,16.25
2022-07-28T04:45:17.206Z,16.28
2022-07-28T04:48:23.971Z,16.35
2022-07-28T04:51:31.641Z,16.38
2022-07-28T04:54:38.264Z,16.37
2022-07-28T04:57:46.708Z,16.44
2022-07-28T05:00:53.089Z,16.43
2022-07-28T05:03:58.586Z,16.51
2022-07-28T05:07:07.856Z,16.56
2022-07-28T05:10:18.431Z,16.55
2022-07-28T05:13:33.359Z,16.39
2022-07-28T05:16:39.776Z,16.26
2022-07-28T05:19:47.018Z,16.19
2022-07-28T05:22:53.963Z,16.16
2022-07-28T05:26:00.241Z,16.14
2022-07-28T05:29:09.994Z,16.12
2022-07-28T05:32:17.748Z,16.24
2022-07-28T05:35:24.127Z,16.33
2022-07-28T05:38:31.107Z,16.46
2022-07-28T05:41:36.717Z,16.67
2022-07-28T05:44:45.791Z,16.88
2022-07-28T05:47:53.006Z,17.03
2022-07-28T05:50:59.382Z,17.06
2022-07-28T05:54:06.298Z,17.18
2022-07-28T05:57:15.221Z,17.33
2022-07-28T06:00:25.991Z,17.41
2022-07-28T06:03:41.468Z,17.52
2022-07-28T06:06:47.343Z,17.66
2022-07-28T06:09:53.569Z,17.89
2022-07-28T06:12:59.596Z,18.05
2022-07-28T06:16:13.279Z,18.29
2022-07-28T06:19:18.921Z,18.47
2022-07-28T06:22:25.165Z,18.60
2022-07-28T06:25:32.292Z,18.72
2022-07-28T06:28:38.909Z,18.79
2022-07-28T06:31:47.079Z,18.81
2022-07-28T06:34:53.290Z,18.90
2022-07-28T06:37:58.641Z,19.02
2022-07-28T06:41:06.718Z,19.12
2022-07-28T06:44:12.786Z,19.15
2022-07-28T06:47:23.400Z,19.15
2022-07-28T06:50:29.301Z,19.25
2022-07-28T06:53:35.709Z,19.23
2022-07-28T06:56:41.073Z,19.32
2022-07-28T06:59:48.394Z,19.35
2022-07-28T07:02:56.877Z,19.40
2022-07-28T07:06:03.518Z,19.42
2022-07-28T07:09:10.278Z,19.42
2022-07-28T07:12:16.494Z,19.53
2022-07-28T07:15:22.009Z,19.52
2022-07-28T07:18:33.245Z,19.51
2022-07-28T07:21:38.701Z,19.53
2022-07-28T07:24:44.878Z,19.48
2022-07-28T07:27:50.426Z,19.44
2022-07-28T07:30:56.776Z,19.41
2022-07-28T07:34:06.669Z,19.39
2022-07-28T07:37:15.324Z,19.45
2022-07-28T07:40:20.678Z,19.56
2022-07-28T07:43:26.964Z,19.60
2022-07-28T07:46:32.366Z,19.72
2022-07-28T07:49:45.154Z,19.77
2022-07-28T07:52:52.850Z,19.83
2022-07-28T07:55:59.182Z,19.87
2022-07-28T07:59:06.625Z,19.87
2022-07-28T08:02:13.036Z,19.91
2022-07-28T08:05:21.577Z,19.96
2022-07-28T08:08:46.438Z,20.06
2022-07-28T08:11:53.880Z,20.14
2022-07-28T08:15:00.322Z,20.22
2022-07-28T08:18:07.517Z,20.24
2022-07-28T08:21:16.723Z,20.28
2022-07-28T08:24:33.052Z,20.21
2022-07-28T08:27:40.370Z,20.24
2022-07-28T08:30:45.976Z,20.23
2022-07-28T08:33:53.814Z,20.27
2022-07-28T08:37:03.192Z,20.38
2022-07-28T08:40:15.029Z,20.43
2022-07-28T08:43:33.698Z,20.50
2022-07-28T08:46:41.830Z,20.49
2022-07-28T08:49:47.319Z,20.52
2022-07-28T08:52:56.904Z,20.61
2022-07-28T08:56:07.583Z,20.61
2022-07-28T08:59:13.849Z,20.61
2022-07-28T09:02:20.191Z,20.57
2022-07-28T09:05:28.032Z,20.57
2022-07-28T09:08:36.457Z,20.68
2022-07-28T09:11:43.205Z,20.77
2022-07-28T09:14:49.254Z,20.96
2022-07-28T09:17:55.837Z,21.01
2022-07-28T09:21:01.273Z,20.95
2022-07-28T09:24:11.716Z,20.97
2022-07-28T09:27:18.773Z,20.98
2022-07-28T09:30:33.338Z,21.05
2022-07-28T09:33:43.106Z,21.14
2022-07-28T09:36:50.332Z,21.23
2022-07-28T09:40:04.061Z,21.31
2022-07-28T09:43:12.050Z,21.47
2022-07-28T09:46:19.185Z,21.58
2022-07-28T09:49:43.426Z,21.57
2022-07-28T09:52:50.040Z,21.57
2022-07-28T09:56:04.712Z,21.65
2022-07-28T09:59:12.863Z,21.71
2022-07-28T10:02:27.266Z,21.82
2022-07-28T10:05:43.741Z,21.76
2022-07-28T10:08:52.721Z,21.88
2022-07-28T10:12:21.182Z,22.01
2022-07-28T10:15:50.693Z,21.97
2022-07-28T10:18:57.465Z,22.02
2022-07-28T10:22:06.406Z,22.07
2022-07-28T10:25:13.704Z,22.13
2022-07-28T10:28:24.802Z,22.04
2022-07-28T10:31:38.804Z,22.08
2022-07-28T10:34:59.251Z,22.08
2022-07-28T10:38:15.043Z,22.30
2022-07-28T10:41:25.201Z,22.57
2022-07-28T10:44:38.277Z,22.70
2022-07-28T10:47:44.795Z,22.76
2022-07-28T10:50:50.456Z,22.84
2022-07-28T10:54:01.047Z,22.84
2022-07-28T10:57:09.177Z,22.83
2022-07-28T11:00:26.386Z,22.81
2022-07-28T11:03:44.651Z,22.80
2022-07-28T11:06:51.398Z,22.77
2022-07-28T11:09:57.075Z,22.83
2022-07-28T11:13:06.106Z,22.87
2022-07-28T11:16:26.707Z,23.06
2022-07-28T11:23:47.612Z,23.23
2022-07-28T11:26:54.503Z,23.38
2022-07-28T11:30:00.182Z,23.64
2022-07-28T11:33:11.042Z,23.87
2022-07-28T11:36:16.499Z,24.17
2022-07-28T11:39:25.124Z,24.59
2022-07-28T11:42:33.789Z,24.92
2022-07-28T11:45:45.735Z,25.04
2022-07-28T11:49:24.065Z,25.19
2022-07-28T11:52:31.282Z,25.04
2022-07-28T11:55:49.181Z,24.95
2022-07-28T11:59:04.296Z,24.82
2022-07-28T12:02:10.333Z,24.85
2022-07-28T12:05:20.697Z,24.81
2022-07-28T12:08:26.086Z,24.77
2022-07-28T12:11:35.625Z,24.75
2022-07-28T12:14:44.947Z,24.78
2022-07-28T12:17:52.486Z,24.70
2022-07-28T12:21:05.211Z,24.67
2022-07-28T12:24:15.574Z,24.63
2022-07-28T12:27:31.829Z,24.82
2022-07-28T12:30:38.409Z,24.94
2022-07-28T12:33:45.111Z,25.22
2022-07-28T12:36:57.164Z,25.53
2022-07-28T12:40:03.552Z,25.42
2022-07-28T12:43:09.899Z,25.40
2022-07-28T12:46:15.358Z,25.36
2022-07-28T12:49:25.635Z,25.00
2022-07-28T12:52:33.925Z,24.72
2022-07-28T12:55:43.201Z,24.45
2022-07-28T12:58:48.885Z,24.25
2022-07-28T13:01:57.439Z,24.17
2022-07-28T13:05:03.303Z,24.11
2022-07-28T13:08:12.565Z,24.16
2022-07-28T13:11:43.195Z,24.18
2022-07-28T13:14:48.675Z,24.16
2022-07-28T13:17:57.268Z,24.19
2022-07-28T13:21:03.579Z,24.31
2022-07-28T13:24:14.508Z,24.39
2022-07-28T13:27:21.068Z,24.44
2022-07-28T13:30:27.262Z,24.59
2022-07-28T13:33:39.511Z,24.75
2022-07-28T13:36:45.083Z,24.85
2022-07-28T13:39:54.916Z,24.92
2022-07-28T13:43:00.348Z,25.00
2022-07-28T13:46:07.855Z,25.09
2022-07-28T13:49:14.102Z,25.29
2022-07-28T13:52:32.503Z,25.46
2022-07-28T13:55:42.625Z,25.48
2022-07-28T13:58:48.847Z,25.46
2022-07-28T14:01:55.594Z,25.48
2022-07-28T14:05:03.001Z,25.55
2022-07-28T14:08:08.832Z,25.68
2022-07-28T14:11:19.523Z,25.79
2022-07-28T14:14:28.538Z,25.78
2022-07-28T14:17:43.554Z,25.79
2022-07-28T14:20:50.332Z,25.79
2022-07-28T14:23:57.178Z,25.78
2022-07-28T14:27:06.542Z,25.78
2022-07-28T14:30:14.415Z,25.80
2022-07-28T14:33:20.756Z,25.75
2022-07-28T14:36:26.967Z,25.80
2022-07-28T14:39:32.597Z,25.70
2022-07-28T14:42:42.076Z,25.57
2022-07-28T14:46:01.624Z,25.38
2022-07-28T14:49:13.831Z,25.25
2022-07-28T14:52:19.210Z,25.14
2022-07-28T14:55:26.676Z,25.01
2022-07-28T14:58:34.935Z,25.01
2022-07-28T15:01:41.259Z,25.06
2022-07-28T15:04:46.837Z,25.17
2022-07-28T15:07:53.613Z,25.30
2022-07-28T15:10:59.238Z,25.47
2022-07-28T15:14:08.642Z,25.60
2022-07-28T15:17:14.293Z,25.82
2022-07-28T15:20:20.536Z,26.07
2022-07-28T15:23:26.412Z,26.53
2022-07-28T15:26:32.622Z,27.26
2022-07-28T15:29:43.419Z,28.04
2022-07-28T15:32:56.299Z,28.72
2022-07-28T15:36:03.480Z,29.62
2022-07-28T15:39:14.192Z,30.45
2022-07-28T15:42:19.762Z,30.95
2022-07-28T15:45:29.367Z,31.35
2022-07-28T15:48:35.076Z,31.75
2022-07-28T15:51:42.223Z,31.59
2022-07-28T15:54:47.933Z,32.06
2022-07-28T15:57:55.783Z,32.38
2022-07-28T16:01:03.959Z,33.02
2022-07-28T16:04:10.832Z,33.48
2022-07-28T16:07:23.709Z,33.79
2022-07-28T16:10:30.147Z,33.42
2022-07-28T16:13:37.624Z,33.32
2022-07-28T16:16:46.732Z,33.20
2022-07-28T16:19:52.319Z,32.49
2022-07-28T16:22:59.094Z,31.62
2022-07-28T16:26:08.235Z,31.23
2022-07-28T16:29:14.559Z,31.06
2022-07-28T16:32:22.762Z,31.21
2022-07-28T16:35:32.891Z,31.72
2022-07-28T16:38:38.263Z,32.17
2022-07-28T16:41:47.763Z,32.60
2022-07-28T16:44:53.835Z,32.63
2022-07-28T16:48:04.132Z,32.75
2022-07-28T16:51:09.708Z,32.74
2022-07-28T16:54:16.171Z,32.95
2022-07-28T16:57:21.836Z,32.65
2022-07-28T17:00:29.847Z,31.87
2022-07-28T17:03:38.081Z,30.82
2022-07-28T17:06:45.423Z,29.94
2022-07-28T17:09:54.375Z,29.12
2022-07-28T17:13:00.543Z,28.60
2022-07-28T17:16:07.873Z,28.18
2022-07-28T17:19:18.736Z,27.71
2022-07-28T17:22:25.087Z,27.37
2022-07-28T17:29:00.878Z,26.66
2022-07-28T17:32:08.378Z,26.35
2022-07-28T17:35:31.299Z,26.00
2022-07-28T17:38:38.173Z,25.60
2022-07-28T17:41:43.793Z,25.39
2022-07-28T17:44:51.246Z,25.18
2022-07-28T17:47:56.611Z,25.04
2022-07-28T17:51:06.163Z,24.90
2022-07-28T17:54:13.910Z,24.79
2022-07-28T17:57:21.783Z,24.63
2022-07-28T18:00:30.127Z,24.44
2022-07-28T18:03:59.386Z,24.34
2022-07-28T18:07:06.351Z,24.16
2022-07-28T18:10:12.893Z,24.02
2022-07-28T18:13:19.907Z,23.86
2022-07-28T18:16:26.240Z,23.71
2022-07-28T18:19:32.489Z,23.54
2022-07-28T18:22:41.759Z,23.38
2022-07-28T18:25:47.100Z,23.23
2022-07-28T18:28:53.821Z,23.08
2022-07-28T18:31:59.148Z,22.97
2022-07-28T18:35:06.509Z,22.86
2022-07-28T18:38:14.725Z,22.75
2022-07-28T18:41:20.984Z,22.59
2022-07-28T18:44:26.606Z,22.47
2022-07-28T18:47:32.903Z,22.41
2022-07-28T18:50:40.915Z,22.31
2022-07-28T18:53:50.223Z,22.23
2022-07-28T18:56:55.590Z,22.14
2022-07-28T19:00:03.799Z,22.05
2022-07-28T19:03:09.485Z,21.98
2022-07-28T19:06:15.756Z,21.89
2022-07-28T19:09:24.169Z,21.81
2022-07-28T19:12:31.616Z,21.76
2022-07-28T19:15:37.059Z,21.68
2022-07-28T19:18:43.685Z,21.62
2022-07-28T19:21:49.142Z,21.59
2022-07-28T19:24:58.486Z,21.55
2022-07-28T19:28:03.884Z,21.51
2022-07-28T19:31:10.938Z,21.47
2022-07-28T19:34:17.579Z,21.41
2022-07-28T19:37:23.963Z,21.38
2022-07-28T19:40:32.435Z,21.31
2022-07-28T19:43:38.699Z,21.26
2022-07-28T19:46:45.585Z,21.19
2022-07-28T19:49:52.183Z,21.12
2022-07-28T19:52:57.778Z,21.06
2022-07-28T19:56:09.014Z,20.99
2022-07-28T19:59:15.148Z,20.93
2022-07-28T20:02:21.406Z,20.87
2022-07-28T20:05:26.992Z,20.84
2022-07-28T20:08:33.217Z,20.77
2022-07-28T20:11:41.404Z,20.67
2022-07-28T20:14:47.576Z,20.61
2022-07-28T20:17:53.176Z,20.56
2022-07-28T20:20:59.558Z,20.48
2022-07-28T20:24:27.770Z,20.41
2022-07-28T20:27:54.194Z,20.33
2022-07-28T20:30:59.579Z,20.28
2022-07-28T20:34:07.223Z,20.22
2022-07-28T20:37:28.470Z,20.17
2022-07-28T20:40:39.292Z,20.11
2022-07-28T20:44:11.220Z,20.05
2022-07-28T20:47:16.692Z,19.97
2022-07-28T20:50:25.298Z,19.93
2022-07-28T20:53:33.247Z,19.89
2022-07-28T20:56:38.619Z,19.83
2022-07-28T20:59:49.153Z,19.80
2022-07-28T21:02:54.788Z,19.74
2022-07-28T21:06:01.430Z,19.68
2022-07-28T21:09:08.340Z,19.64
2022-07-28T21:12:16.534Z,19.58
2022-07-28T21:15:24.952Z,19.55
2022-07-28T21:18:31.284Z,19.49
2022-07-28T21:21:39.270Z,19.44
2022-07-28T21:24:45.446Z,19.39
2022-07-28T21:28:06.782Z,19.32
2022-07-28T21:31:17.398Z,19.28
2022-07-28T21:34:22.777Z,19.25
2022-07-28T21:37:29.226Z,19.23
2022-07-28T21:40:38.707Z,19.22
2022-07-28T21:43:45.487Z,19.21
2022-07-28T21:46:53.877Z,19.17
2022-07-28T21:50:00.122Z,19.14
2022-07-28T21:53:06.878Z,19.11
2022-07-28T21:56:13.562Z,19.09
2022-07-28T21:59:18.918Z,19.09
2022-07-28T22:02:27.942Z,19.06
2022-07-28T22:05:34.462Z,19.02
2022-07-28T22:08:40.986Z,19.00
2022-07-28T22:11:46.504Z,18.94
2022-07-28T22:14:53.217Z,18.90
2022-07-28T22:18:01.413Z,18.87
2022-07-28T22:21:07.984Z,18.82
2022-07-28T22:24:13.616Z,18.78
2022-07-28T22:27:19.991Z,18.76
2022-07-28T22:30:30.344Z,18.74
2022-07-28T22:33:39.415Z,18.72
2022-07-28T22:36:45.218Z,18.67
2022-07-28T22:39:51.774Z,18.63
2022-07-28T22:42:57.454Z,18.61
2022-07-28T22:46:04.289Z,18.60
2022-07-28T22:49:12.590Z,18.61
2022-07-28T22:52:18.776Z,18.58
2022-07-28T22:58:47.490Z,18.51
2022-07-28T23:01:52.832Z,18.50
2022-07-28T23:05:03.594Z,18.47
2022-07-28T23:08:09.458Z,18.44
2022-07-28T23:11:17.167Z,18.42
2022-07-28T23:14:22.638Z,18.38
2022-07-28T23:17:28.880Z,18.36
2022-07-28T23:20:37.532Z,18.31
2022-07-28T23:23:44.030Z,18.24
2022-07-28T23:26:49.524Z,18.14
2022-07-28T23:29:55.817Z,18.06
2022-07-28T23:33:03.016Z,18.03
2022-07-28T23:36:16.846Z,17.98
2022-07-28T23:39:33.400Z,17.89
2022-07-28T23:42:39.846Z,17.89
2022-07-28T23:45:45.340Z,17.87
2022-07-28T23:48:51.849Z,17.86
2022-07-28T23:52:00.341Z,17.85
2022-07-28T23:55:08.369Z,17.83
2022-07-28T23:58:13.920Z,17.82
